Time;durP1;ratioP1;P1;durP2;ratioP2;P2;SDS_P1;SDS_P2;PMS_P1;PMS_P2;Temp;Humidity;BMP_temperature;BMP_pressure;BME280_temperature;BME280_humidity;BME280_pressure;Samples;Min_cycle;Max_cycle;Signal;HPM_P1;HPM_P2
2022/06/16 00:00:36;;;;;;;3.15;1.27;;;;;;;;;;7391372;19;19998;-84
2022/06/16 00:03:03;;;;;;;1.70;1.48;;;;;;;;;;7392279;19;19998;-83
2022/06/16 00:05:34;;;;;;;1.85;1.65;;;;;;;;;;7392547;19;20107;-85
2022/06/16 00:08:00;;;;;;;3.60;2.10;;;;;;;;;;7390766;19;20003;-85
2022/06/16 00:10:26;;;;;;;3.78;1.90;;;;;;;;;;7390672;19;20344;-83
2022/06/16 00:12:51;;;;;;;4.10;2.10;;;;;;;;;;7390667;19;20003;-84
2022/06/16 00:15:21;;;;;;;6.40;1.73;;;;;;;;;;7390485;19;20458;-83
2022/06/16 00:17:46;;;;;;;2.80;1.40;;;;;;;;;;7398068;19;20461;-85
2022/06/16 00:20:12;;;;;;;3.42;1.67;;;;;;;;;;7398431;19;20014;-83
2022/06/16 00:22:37;;;;;;;4.53;1.70;;;;;;;;;;7397503;19;19999;-82
2022/06/16 00:25:04;;;;;;;1.48;1.38;;;;;;;;;;7397392;19;19991;-84
2022/06/16 00:27:30;;;;;;;2.63;1.42;;;;;;;;;;7398626;19;19995;-83
2022/06/16 00:29:55;;;;;;;4.15;1.60;;;;;;;;;;7397867;19;20386;-83
2022/06/16 00:32:21;;;;;;;3.05;1.80;;;;;;;;;;7396049;19;20002;-84
2022/06/16 00:34:46;;;;;;;2.28;1.60;;;;;;;;;;7397685;19;20481;-84
2022/06/16 00:37:12;;;;;;;1.27;1.17;;;;;;;;;;7397984;19;20013;-83
2022/06/16 00:39:37;;;;;;;4.50;1.70;;;;;;;;;;7398944;19;19991;-83
2022/06/16 00:42:17;;;;;;;2.25;1.77;;;;;;;;;;7395446;19;20495;-84
2022/06/16 00:44:46;;;;;;;2.45;1.60;;;;;;;;;;7397691;19;19994;-84
2022/06/16 00:47:12;;;;;;;1.60;1.17;;;;;;;;;;7396010;19;20006;-84
2022/06/16 00:49:41;;;;;;;1.50;1.30;;;;;;;;;;7397182;19;19998;-84
2022/06/16 00:52:12;;;;;;;6.90;1.85;;;;;;;;;;7395889;19;20022;-81
2022/06/16 00:54:43;;;;;;;3.17;1.50;;;;;;;;;;7395098;19;19998;-83
2022/06/16 00:57:14;;;;;;;2.78;1.52;;;;;;;;;;7395503;19;20002;-84
2022/06/16 00:59:40;;;;;;;1.55;1.40;;;;;;;;;;7396754;19;20003;-82
2022/06/16 01:02:08;;;;;;;2.55;2.10;;;;;;;;;;7395381;19;20492;-83
2022/06/16 01:04:52;;;;;;;3.55;1.98;;;;;;;;;;7397446;19;20009;-82
2022/06/16 01:07:22;;;;;;;2.28;1.67;;;;;;;;;;7397103;19;20355;-83
2022/06/16 01:09:48;;;;;;;1.40;1.15;;;;;;;;;;7397050;19;19994;-83
2022/06/16 01:15:23;;;;;;;4.00;1.75;;;;;;;;;;7396866;19;20003;-84
2022/06/16 01:18:02;;;;;;;2.83;1.80;;;;;;;;;;7396432;19;20006;-81
2022/06/16 01:20:44;;;;;;;1.92;1.45;;;;;;;;;;7394913;19;19999;-84
2022/06/16 01:23:24;;;;;;;3.33;1.50;;;;;;;;;;7394747;19;20458;-82
2022/06/16 01:26:08;;;;;;;6.32;2.03;;;;;;;;;;7394897;19;20005;-84
2022/06/16 01:29:05;;;;;;;2.15;1.73;;;;;;;;;;7396328;19;19998;-82
2022/06/16 01:32:06;;;;;;;2.00;1.77;;;;;;;;;;7392468;19;20015;-82
2022/06/16 01:35:05;;;;;;;2.33;1.85;;;;;;;;;;7390643;19;19990;-82
2022/06/16 01:37:52;;;;;;;3.50;2.05;;;;;;;;;;7395338;19;19994;-82
2022/06/16 01:40:21;;;;;;;2.22;1.90;;;;;;;;;;7396310;19;19995;-83
2022/06/16 01:43:04;;;;;;;5.78;2.25;;;;;;;;;;7394610;19;20359;-83
2022/06/16 01:45:41;;;;;;;2.50;2.00;;;;;;;;;;7395272;19;19991;-82
2022/06/16 01:48:10;;;;;;;2.10;1.63;;;;;;;;;;7395272;19;20414;-82
2022/06/16 01:50:42;;;;;;;3.40;1.88;;;;;;;;;;7394608;19;20028;-83
2022/06/16 01:53:14;;;;;;;2.88;1.40;;;;;;;;;;7393297;19;19998;-83
2022/06/16 01:55:45;;;;;;;3.20;1.50;;;;;;;;;;7395738;19;20002;-83
2022/06/16 01:58:17;;;;;;;2.65;1.30;;;;;;;;;;7394261;19;20423;-83
2022/06/16 02:00:45;;;;;;;4.32;2.03;;;;;;;;;;7394405;19;20010;-82
2022/06/16 02:03:15;;;;;;;3.75;1.95;;;;;;;;;;7395168;19;20024;-83
2022/06/16 02:05:52;;;;;;;6.00;2.42;;;;;;;;;;7395592;19;19998;-82
2022/06/16 02:08:24;;;;;;;4.03;2.15;;;;;;;;;;7392074;19;19999;-83
2022/06/16 02:10:54;;;;;;;2.92;2.00;;;;;;;;;;7392973;19;20009;-82
2022/06/16 02:13:50;;;;;;;4.75;2.40;;;;;;;;;;7393744;19;20003;-82
2022/06/16 02:16:24;;;;;;;1.85;1.63;;;;;;;;;;7393701;19;20051;-84
2022/06/16 02:18:51;;;;;;;5.53;2.70;;;;;;;;;;7394672;19;20340;-83
2022/06/16 02:21:36;;;;;;;3.72;2.30;;;;;;;;;;7393517;19;20074;-82
2022/06/16 02:24:04;;;;;;;3.17;1.63;;;;;;;;;;7393715;19;20492;-83
2022/06/16 02:26:30;;;;;;;7.50;2.35;;;;;;;;;;7394383;19;20066;-84
2022/06/16 02:29:00;;;;;;;4.72;1.90;;;;;;;;;;7393579;19;20533;-82
2022/06/16 02:31:44;;;;;;;2.90;1.50;;;;;;;;;;7392718;19;20012;-82
2022/06/16 02:34:19;;;;;;;4.95;1.63;;;;;;;;;;7392554;19;19999;-82
2022/06/16 02:37:06;;;;;;;4.22;1.83;;;;;;;;;;7394163;19;19990;-82
2022/06/16 02:39:49;;;;;;;2.60;1.63;;;;;;;;;;7392720;19;20439;-83
2022/06/16 02:42:36;;;;;;;2.45;1.40;;;;;;;;;;7390760;19;20007;-84
2022/06/16 02:45:11;;;;;;;3.35;2.00;;;;;;;;;;7393063;19;19998;-82
2022/06/16 02:47:54;;;;;;;3.05;1.90;;;;;;;;;;7393831;19;20015;-82
2022/06/16 02:50:57;;;;;;;1.65;1.55;;;;;;;;;;7394112;19;20006;-83
2022/06/16 02:56:28;;;;;;;2.33;1.75;;;;;;;;;;7393947;19;20002;-84
2022/06/16 02:58:58;;;;;;;3.70;2.07;;;;;;;;;;7393704;19;20005;-83
2022/06/16 03:01:24;;;;;;;1.70;1.60;;;;;;;;;;7391641;19;20506;-82
2022/06/16 03:04:17;;;;;;;2.30;1.92;;;;;;;;;;7392836;19;20449;-83
2022/06/16 03:06:44;;;;;;;2.35;1.60;;;;;;;;;;7392399;19;19999;-83
2022/06/16 03:09:09;;;;;;;1.98;1.70;;;;;;;;;;7391404;19;19995;-82
2022/06/16 03:11:39;;;;;;;3.47;1.88;;;;;;;;;;7391375;19;20481;-83
2022/06/16 03:14:05;;;;;;;2.50;1.95;;;;;;;;;;7390992;19;20003;-83
2022/06/16 03:16:31;;;;;;;4.45;1.98;;;;;;;;;;7391842;19;20026;-83
2022/06/16 03:18:56;;;;;;;2.17;1.73;;;;;;;;;;7392194;19;19995;-83
2022/06/16 03:21:22;;;;;;;2.17;1.65;;;;;;;;;;7391748;19;20091;-83
2022/06/16 03:23:47;;;;;;;2.42;2.22;;;;;;;;;;7392608;19;20007;-81
2022/06/16 03:26:13;;;;;;;3.00;2.08;;;;;;;;;;7392521;19;20005;-82
2022/06/16 03:28:39;;;;;;;4.70;2.05;;;;;;;;;;7392185;19;20070;-84
2022/06/16 03:31:05;;;;;;;5.18;2.25;;;;;;;;;;7391621;19;20016;-84
2022/06/16 03:33:30;;;;;;;5.32;2.38;;;;;;;;;;7391712;19;19999;-81
2022/06/16 03:35:56;;;;;;;7.28;2.53;;;;;;;;;;7392556;19;20464;-83
2022/06/16 03:40:53;;;;;;;3.75;1.65;;;;;;;;;;7392035;19;20628;-83
2022/06/16 03:43:19;;;;;;;2.80;1.73;;;;;;;;;;7391956;19;19995;-83
2022/06/16 03:45:44;;;;;;;3.13;1.85;;;;;;;;;;7394164;19;20003;-82
2022/06/16 03:48:10;;;;;;;4.70;2.00;;;;;;;;;;7392560;19;20007;-83
2022/06/16 03:50:35;;;;;;;3.70;2.05;;;;;;;;;;7399241;19;20006;-83
2022/06/16 03:53:01;;;;;;;3.10;2.15;;;;;;;;;;7401057;19;20003;-82
2022/06/16 03:55:26;;;;;;;2.40;1.90;;;;;;;;;;7401982;19;19998;-83
2022/06/16 03:57:52;;;;;;;4.20;2.42;;;;;;;;;;7400724;19;20019;-84
2022/06/16 04:00:21;;;;;;;3.60;2.05;;;;;;;;;;7399246;19;20066;-83
2022/06/16 04:02:47;;;;;;;3.22;1.80;;;;;;;;;;7399789;19;20003;-82
2022/06/16 04:05:13;;;;;;;3.03;2.03;;;;;;;;;;7399429;19;20019;-81
2022/06/16 04:07:38;;;;;;;2.38;1.95;;;;;;;;;;7398692;19;20003;-82
2022/06/16 04:10:06;;;;;;;4.78;1.85;;;;;;;;;;7399145;19;20002;-83
2022/06/16 04:12:31;;;;;;;6.43;2.20;;;;;;;;;;7395940;19;19999;-83
2022/06/16 04:14:57;;;;;;;4.43;1.80;;;;;;;;;;7399367;19;20107;-82
2022/06/16 04:17:22;;;;;;;3.60;2.00;;;;;;;;;;7398099;19;19999;-84
2022/06/16 04:22:31;;;;;;;6.50;2.30;;;;;;;;;;7396597;19;20002;-83
2022/06/16 04:24:57;;;;;;;3.60;1.70;;;;;;;;;;7399037;19;19995;-84
2022/06/16 04:27:22;;;;;;;4.18;2.33;;;;;;;;;;7396518;19;20015;-84
2022/06/16 04:29:47;;;;;;;3.78;1.90;;;;;;;;;;7398375;19;20066;-84
2022/06/16 04:32:13;;;;;;;2.58;2.35;;;;;;;;;;7396334;19;20018;-84
2022/06/16 04:34:39;;;;;;;6.53;2.45;;;;;;;;;;7396688;19;20101;-84
2022/06/16 04:37:05;;;;;;;2.22;1.60;;;;;;;;;;7398668;19;19998;-85
2022/06/16 04:39:30;;;;;;;4.35;2.00;;;;;;;;;;7398857;19;19999;-84
2022/06/16 04:41:56;;;;;;;4.07;1.80;;;;;;;;;;7398698;19;20002;-83
2022/06/16 04:44:21;;;;;;;2.60;1.70;;;;;;;;;;7397679;19;19998;-83
2022/06/16 04:46:46;;;;;;;1.98;1.77;;;;;;;;;;7397686;19;20006;-84
2022/06/16 04:49:12;;;;;;;2.70;2.22;;;;;;;;;;7397564;19;20010;-84
2022/06/16 04:51:38;;;;;;;2.38;2.17;;;;;;;;;;7394903;19;20429;-84
2022/06/16 04:54:03;;;;;;;4.85;2.88;;;;;;;;;;7394780;19;20321;-82
2022/06/16 04:56:28;;;;;;;4.95;2.72;;;;;;;;;;7396412;19;20018;-83
2022/06/16 04:58:54;;;;;;;3.97;2.35;;;;;;;;;;7396172;19;19990;-83
2022/06/16 05:01:19;;;;;;;4.47;2.95;;;;;;;;;;7393369;19;20002;-83
2022/06/16 05:03:44;;;;;;;3.55;2.22;;;;;;;;;;7396388;19;20015;-83
2022/06/16 05:06:10;;;;;;;3.58;2.53;;;;;;;;;;7395262;19;20058;-83
2022/06/16 05:08:36;;;;;;;2.55;2.00;;;;;;;;;;7395250;19;20058;-83
2022/06/16 05:11:01;;;;;;;2.28;2.08;;;;;;;;;;7392843;19;20015;-83
2022/06/16 05:13:45;;;;;;;1.88;1.65;;;;;;;;;;7394993;19;19998;-83
2022/06/16 05:16:11;;;;;;;4.03;1.92;;;;;;;;;;7394857;19;20018;-83
2022/06/16 05:18:36;;;;;;;2.22;1.95;;;;;;;;;;7394683;19;20003;-85
2022/06/16 05:21:05;;;;;;;3.78;2.58;;;;;;;;;;7395598;19;19999;-83
2022/06/16 05:23:30;;;;;;;4.20;2.15;;;;;;;;;;7394653;19;20014;-84
2022/06/16 05:25:57;;;;;;;4.65;2.20;;;;;;;;;;7394233;19;20013;-83
2022/06/16 05:28:22;;;;;;;7.05;2.53;;;;;;;;;;7396199;19;20386;-83
2022/06/16 05:30:47;;;;;;;4.07;2.22;;;;;;;;;;7392943;19;20002;-83
2022/06/16 05:33:13;;;;;;;4.38;2.50;;;;;;;;;;7394750;19;20031;-84
2022/06/16 05:35:38;;;;;;;8.95;2.90;;;;;;;;;;7396090;19;20082;-84
2022/06/16 05:38:05;;;;;;;2.78;2.00;;;;;;;;;;7401517;19;20013;-88
2022/06/16 05:40:31;;;;;;;3.20;2.05;;;;;;;;;;7424372;19;20016;-85
2022/06/16 05:42:56;;;;;;;5.40;2.13;;;;;;;;;;7425545;19;19995;-84
2022/06/16 05:45:22;;;;;;;3.55;2.17;;;;;;;;;;7424175;19;20033;-86
2022/06/16 05:47:47;;;;;;;2.22;1.63;;;;;;;;;;7423522;19;19983;-86
2022/06/16 05:50:16;;;;;;;10.07;2.42;;;;;;;;;;7423175;19;20237;-85
2022/06/16 05:52:41;;;;;;;5.65;2.33;;;;;;;;;;7423576;19;20020;-85
2022/06/16 05:55:09;;;;;;;2.45;1.77;;;;;;;;;;7422333;19;19999;-87
2022/06/16 05:57:34;;;;;;;3.35;1.88;;;;;;;;;;7424085;19;20331;-85
2022/06/16 06:00:00;;;;;;;4.55;2.15;;;;;;;;;;7411530;19;20016;-86
2022/06/16 06:02:25;;;;;;;4.60;2.05;;;;;;;;;;7394390;19;20058;-85
2022/06/16 06:04:50;;;;;;;3.42;1.83;;;;;;;;;;7395136;19;19999;-85
2022/06/16 06:07:19;;;;;;;3.20;1.80;;;;;;;;;;7397929;19;20005;-86
2022/06/16 06:18:09;;;;;;;7.95;2.00;;;;;;;;;;7395423;19;20022;-87
2022/06/16 06:20:34;;;;;;;3.25;1.80;;;;;;;;;;7395877;19;20101;-86
2022/06/16 06:23:00;;;;;;;2.72;1.65;;;;;;;;;;7393572;19;20453;-84
2022/06/16 06:25:25;;;;;;;2.67;1.83;;;;;;;;;;7393921;19;20429;-84
2022/06/16 06:27:51;;;;;;;4.13;2.00;;;;;;;;;;7393216;19;20006;-87
2022/06/16 06:30:23;;;;;;;3.55;1.90;;;;;;;;;;7392005;19;20108;-86
2022/06/16 06:32:50;;;;;;;8.65;2.25;;;;;;;;;;7397489;19;20469;-86
2022/06/16 06:35:16;;;;;;;3.83;2.03;;;;;;;;;;7395823;19;20465;-85
2022/06/16 06:37:42;;;;;;;3.17;1.77;;;;;;;;;;7396477;19;20010;-85
2022/06/16 06:40:22;;;;;;;3.70;1.92;;;;;;;;;;7392850;19;19999;-85
2022/06/16 06:42:48;;;;;;;6.85;2.00;;;;;;;;;;7397398;19;20378;-85
2022/06/16 06:45:13;;;;;;;2.58;2.10;;;;;;;;;;7395509;19;20006;-83
2022/06/16 06:47:38;;;;;;;3.90;2.10;;;;;;;;;;7395309;19;20001;-84
2022/06/16 06:50:05;;;;;;;4.88;1.80;;;;;;;;;;7395309;19;20056;-85
2022/06/16 06:52:30;;;;;;;5.97;2.20;;;;;;;;;;7392576;19;20062;-84
2022/06/16 06:54:56;;;;;;;1.98;1.70;;;;;;;;;;7394555;19;20010;-83
2022/06/16 06:57:27;;;;;;;4.13;2.00;;;;;;;;;;7392786;19;19994;-85
2022/06/16 06:59:53;;;;;;;4.90;1.92;;;;;;;;;;7394887;19;20038;-85
2022/06/16 07:02:19;;;;;;;3.80;2.05;;;;;;;;;;7392004;19;20295;-85
2022/06/16 07:04:44;;;;;;;2.85;2.25;;;;;;;;;;7391823;19;20490;-85
2022/06/16 07:07:13;;;;;;;4.05;2.28;;;;;;;;;;7391280;19;20198;-84
2022/06/16 07:09:38;;;;;;;9.73;2.30;;;;;;;;;;7394492;19;20046;-86
2022/06/16 07:12:13;;;;;;;3.42;1.83;;;;;;;;;;7393500;19;20493;-87
2022/06/16 07:14:39;;;;;;;6.70;1.95;;;;;;;;;;7389999;19;20079;-86
2022/06/16 07:17:04;;;;;;;5.75;1.50;;;;;;;;;;7390846;19;20005;-87
2022/06/16 07:19:33;;;;;;;4.45;2.10;;;;;;;;;;7394313;19;20453;-86
2022/06/16 07:21:58;;;;;;;4.05;1.90;;;;;;;;;;7390574;19;20073;-87
2022/06/16 07:24:24;;;;;;;6.93;2.28;;;;;;;;;;7394719;19;20007;-85
2022/06/16 07:26:49;;;;;;;3.00;1.90;;;;;;;;;;7395958;19;20161;-83
2022/06/16 07:29:14;;;;;;;2.90;1.85;;;;;;;;;;7390679;19;20006;-85
2022/06/16 07:31:40;;;;;;;3.78;2.03;;;;;;;;;;7389841;19;20422;-85
2022/06/16 07:34:05;;;;;;;4.13;2.10;;;;;;;;;;7392334;19;20007;-85
2022/06/16 07:36:30;;;;;;;5.75;2.45;;;;;;;;;;7394118;19;20044;-85
2022/06/16 07:38:56;;;;;;;4.55;1.70;;;;;;;;;;7391694;19;20002;-85
2022/06/16 07:41:36;;;;;;;4.50;1.92;;;;;;;;;;7393850;19;20014;-85
2022/06/16 07:44:13;;;;;;;6.75;1.90;;;;;;;;;;7390904;19;20066;-84
2022/06/16 07:46:42;;;;;;;5.05;1.88;;;;;;;;;;7391867;19;20017;-84
2022/06/16 07:49:10;;;;;;;3.97;1.90;;;;;;;;;;7389010;19;20006;-84
2022/06/16 07:51:35;;;;;;;7.50;2.00;;;;;;;;;;7389707;19;20015;-84
2022/06/16 07:54:01;;;;;;;4.32;1.85;;;;;;;;;;7389370;19;19998;-85
2022/06/16 07:56:26;;;;;;;3.33;1.92;;;;;;;;;;7393553;19;19999;-86
2022/06/16 07:58:52;;;;;;;3.60;1.60;;;;;;;;;;7389896;19;20013;-84
2022/06/16 08:01:17;;;;;;;2.78;1.85;;;;;;;;;;7386896;19;19995;-85
2022/06/16 08:03:43;;;;;;;4.57;1.80;;;;;;;;;;7392590;19;20003;-86
2022/06/16 08:06:12;;;;;;;6.03;1.98;;;;;;;;;;7387993;19;20414;-85
2022/06/16 08:08:38;;;;;;;4.10;2.13;;;;;;;;;;7390701;19;20009;-85
2022/06/16 08:11:05;;;;;;;6.03;2.10;;;;;;;;;;7393308;19;19998;-85
2022/06/16 08:13:45;;;;;;;3.60;1.95;;;;;;;;;;7392259;19;20055;-86
2022/06/16 08:16:11;;;;;;;2.58;1.88;;;;;;;;;;7388313;19;20420;-86
2022/06/16 08:18:36;;;;;;;9.98;2.33;;;;;;;;;;7390573;19;19999;-84
2022/06/16 08:21:02;;;;;;;4.82;1.90;;;;;;;;;;7390290;19;20028;-86
2022/06/16 08:23:28;;;;;;;4.20;2.05;;;;;;;;;;7389998;19;19999;-86
2022/06/16 08:25:53;;;;;;;3.47;1.92;;;;;;;;;;7391127;19;20607;-86
2022/06/16 08:28:19;;;;;;;2.08;1.88;;;;;;;;;;7391920;19;20010;-86
2022/06/16 08:30:45;;;;;;;5.72;1.98;;;;;;;;;;7388057;19;20073;-85
2022/06/16 08:33:13;;;;;;;4.07;2.08;;;;;;;;;;7388301;19;20058;-85
2022/06/16 08:35:44;;;;;;;2.63;1.90;;;;;;;;;;7390790;19;20485;-84
2022/06/16 08:38:09;;;;;;;3.95;2.03;;;;;;;;;;7393450;19;20041;-86
2022/06/16 08:40:42;;;;;;;3.65;1.83;;;;;;;;;;7395736;19;19994;-83
2022/06/16 08:43:32;;;;;;;7.32;2.40;;;;;;;;;;7399082;19;20006;-86
2022/06/16 08:46:03;;;;;;;4.65;1.92;;;;;;;;;;7393664;19;20025;-85
2022/06/16 08:48:58;;;;;;;5.72;1.92;;;;;;;;;;7399217;19;20013;-84
2022/06/16 08:51:39;;;;;;;8.32;1.98;;;;;;;;;;7393044;19;20007;-85
2022/06/16 08:54:11;;;;;;;4.57;2.05;;;;;;;;;;7394313;19;20014;-87
2022/06/16 08:57:07;;;;;;;3.00;2.03;;;;;;;;;;7394944;19;20054;-85
2022/06/16 08:59:59;;;;;;;4.10;1.83;;;;;;;;;;7394879;19;20014;-86
2022/06/16 09:02:51;;;;;;;4.40;1.92;;;;;;;;;;7396401;19;20010;-86
2022/06/16 09:05:45;;;;;;;3.72;1.98;;;;;;;;;;7393049;19;20013;-85
2022/06/16 09:08:27;;;;;;;5.32;2.10;;;;;;;;;;7393544;19;20469;-86
2022/06/16 09:11:10;;;;;;;4.13;2.30;;;;;;;;;;7395083;19;20327;-85
2022/06/16 09:14:06;;;;;;;4.00;2.20;;;;;;;;;;7394143;19;20015;-85
2022/06/16 09:16:34;;;;;;;2.83;1.80;;;;;;;;;;7396047;19;20513;-85
2022/06/16 09:19:07;;;;;;;2.97;1.88;;;;;;;;;;7394689;19;20003;-86
2022/06/16 09:21:51;;;;;;;2.75;1.77;;;;;;;;;;7394387;19;20358;-87
2022/06/16 09:24:43;;;;;;;2.92;1.77;;;;;;;;;;7394694;19;20012;-84
2022/06/16 09:27:33;;;;;;;5.18;2.05;;;;;;;;;;7394001;19;19999;-86
2022/06/16 09:30:04;;;;;;;2.53;1.83;;;;;;;;;;7391961;19;19997;-85
2022/06/16 09:32:36;;;;;;;4.38;2.00;;;;;;;;;;7395466;19;20006;-85
2022/06/16 09:35:05;;;;;;;4.20;1.98;;;;;;;;;;7391343;19;20002;-84
2022/06/16 09:37:38;;;;;;;2.78;1.85;;;;;;;;;;7392234;19;20005;-85
2022/06/16 09:40:14;;;;;;;3.95;1.88;;;;;;;;;;7394057;19;20003;-86
2022/06/16 09:43:03;;;;;;;3.42;1.85;;;;;;;;;;7392004;19;20006;-87
2022/06/16 09:45:35;;;;;;;5.30;1.90;;;;;;;;;;7393178;19;20021;-85
2022/06/16 09:48:17;;;;;;;3.50;2.00;;;;;;;;;;7393804;19;20026;-84
2022/06/16 09:50:42;;;;;;;3.92;2.20;;;;;;;;;;7391823;19;19995;-84
2022/06/16 09:53:34;;;;;;;2.42;1.80;;;;;;;;;;7394669;19;19997;-85
2022/06/16 09:56:05;;;;;;;5.53;1.70;;;;;;;;;;7395995;19;19990;-86
2022/06/16 09:58:54;;;;;;;3.75;2.00;;;;;;;;;;7396655;19;20011;-86
2022/06/16 10:01:22;;;;;;;4.03;2.08;;;;;;;;;;7392152;19;20021;-84
2022/06/16 10:03:54;;;;;;;2.33;1.90;;;;;;;;;;7396789;19;20003;-86
2022/06/16 10:06:41;;;;;;;2.72;1.63;;;;;;;;;;7392651;19;20314;-87
2022/06/16 10:09:22;;;;;;;5.30;1.85;;;;;;;;;;7398091;19;20494;-85
2022/06/16 10:12:05;;;;;;;3.42;1.98;;;;;;;;;;7395036;19;20005;-85
2022/06/16 10:15:08;;;;;;;3.22;1.85;;;;;;;;;;7392246;19;20074;-86
2022/06/16 10:17:36;;;;;;;3.70;2.03;;;;;;;;;;7393344;19;20505;-86
2022/06/16 10:20:03;;;;;;;3.60;1.75;;;;;;;;;;7392461;19;20014;-87
2022/06/16 10:22:30;;;;;;;2.90;1.77;;;;;;;;;;7388482;19;19994;-85
2022/06/16 10:25:10;;;;;;;3.00;1.73;;;;;;;;;;7392162;19;20015;-85
2022/06/16 10:28:03;;;;;;;2.78;1.83;;;;;;;;;;7393298;19;20014;-85
2022/06/16 10:30:35;;;;;;;2.67;1.92;;;;;;;;;;7392441;19;20003;-84
2022/06/16 10:33:21;;;;;;;3.33;2.28;;;;;;;;;;7390856;19;20365;-87
2022/06/16 10:35:57;;;;;;;3.55;2.00;;;;;;;;;;7392077;19;19994;-83
2022/06/16 10:38:42;;;;;;;3.45;1.63;;;;;;;;;;7395050;19;20007;-83
2022/06/16 10:41:29;;;;;;;2.38;1.80;;;;;;;;;;7392961;19;19999;-82
2022/06/16 10:43:56;;;;;;;3.03;1.40;;;;;;;;;;7394109;19;20535;-85
2022/06/16 10:46:27;;;;;;;2.92;1.70;;;;;;;;;;7391912;19;20065;-82
2022/06/16 10:48:55;;;;;;;2.75;2.00;;;;;;;;;;7391481;19;20066;-83
2022/06/16 10:51:23;;;;;;;2.50;1.65;;;;;;;;;;7394173;19;20070;-84
2022/06/16 10:54:03;;;;;;;4.88;1.67;;;;;;;;;;7394885;19;20015;-83
2022/06/16 10:56:29;;;;;;;2.53;1.75;;;;;;;;;;7391423;19;20366;-83
2022/06/16 10:59:02;;;;;;;5.75;1.90;;;;;;;;;;7389171;19;20003;-83
2022/06/16 11:01:40;;;;;;;4.82;1.95;;;;;;;;;;7394247;19;20040;-84
2022/06/16 11:04:09;;;;;;;1.90;1.55;;;;;;;;;;7396125;19;19999;-82
2022/06/16 11:06:39;;;;;;;7.63;1.60;;;;;;;;;;7391320;19;20010;-84
2022/06/16 11:09:07;;;;;;;5.97;1.80;;;;;;;;;;7390995;19;20002;-83
2022/06/16 11:11:40;;;;;;;1.70;1.35;;;;;;;;;;7393855;19;20066;-83
2022/06/16 11:14:12;;;;;;;2.60;1.80;;;;;;;;;;7392081;19;20611;-85
2022/06/16 11:16:45;;;;;;;3.95;1.88;;;;;;;;;;7392608;19;19999;-83
2022/06/16 11:19:26;;;;;;;3.55;1.90;;;;;;;;;;7390323;19;20435;-83
2022/06/16 11:21:53;;;;;;;3.35;2.00;;;;;;;;;;7391986;19;20017;-83
2022/06/16 11:24:29;;;;;;;2.40;1.77;;;;;;;;;;7390588;19;20350;-82
2022/06/16 11:27:16;;;;;;;2.75;1.70;;;;;;;;;;7389588;19;20009;-82
2022/06/16 11:29:42;;;;;;;2.38;1.55;;;;;;;;;;7393899;19;20115;-85
2022/06/16 11:32:37;;;;;;;4.05;1.90;;;;;;;;;;7387126;19;20112;-83
2022/06/16 11:35:02;;;;;;;1.85;1.30;;;;;;;;;;7387139;19;20075;-84
2022/06/16 11:37:52;;;;;;;2.15;1.50;;;;;;;;;;7391009;19;20006;-85
2022/06/16 11:40:23;;;;;;;2.63;1.48;;;;;;;;;;7393647;19;20003;-84
2022/06/16 11:43:02;;;;;;;4.10;3.00;;;;;;;;;;7392406;19;20339;-83
2022/06/16 11:45:33;;;;;;;4.18;1.45;;;;;;;;;;7392360;19;20010;-86
2022/06/16 11:48:36;;;;;;;2.10;1.60;;;;;;;;;;7389965;19;20002;-85
2022/06/16 11:51:26;;;;;;;1.50;1.20;;;;;;;;;;7386791;19;19994;-84
2022/06/16 11:53:57;;;;;;;2.65;1.30;;;;;;;;;;7386145;19;20294;-83
2022/06/16 11:56:33;;;;;;;3.20;1.50;;;;;;;;;;7391248;19;20031;-84
2022/06/16 11:59:27;;;;;;;3.75;1.60;;;;;;;;;;7389463;19;20028;-84
2022/06/16 12:02:22;;;;;;;1.92;1.40;;;;;;;;;;7387462;19;20006;-84
2022/06/16 12:05:03;;;;;;;2.22;1.40;;;;;;;;;;7388835;19;20003;-84
2022/06/16 12:07:40;;;;;;;2.88;1.77;;;;;;;;;;7391177;19;20010;-83
2022/06/16 12:10:20;;;;;;;4.88;1.55;;;;;;;;;;7389127;19;20477;-82
2022/06/16 12:12:57;;;;;;;3.53;1.67;;;;;;;;;;7393046;19;20010;-83
2022/06/16 12:15:48;;;;;;;3.30;1.85;;;;;;;;;;7394372;19;20521;-84
2022/06/16 12:18:38;;;;;;;4.35;1.40;;;;;;;;;;7396546;19;20010;-84
2022/06/16 12:21:09;;;;;;;1.63;1.20;;;;;;;;;;7395997;19;20078;-84
2022/06/16 12:23:42;;;;;;;3.45;1.42;;;;;;;;;;7400038;19;20023;-82
2022/06/16 12:26:17;;;;;;;3.47;1.48;;;;;;;;;;7397847;19;20023;-82
2022/06/16 12:28:49;;;;;;;5.53;1.45;;;;;;;;;;7397358;19;20091;-83
2022/06/16 12:31:42;;;;;;;3.22;1.50;;;;;;;;;;7395402;19;19995;-83
2022/06/16 12:34:30;;;;;;;3.50;1.70;;;;;;;;;;7399255;19;20018;-83
2022/06/16 12:37:03;;;;;;;3.90;1.20;;;;;;;;;;7396643;19;19999;-83
2022/06/16 12:39:41;;;;;;;5.32;1.27;;;;;;;;;;7395942;19;20017;-84
2022/06/16 12:42:11;;;;;;;2.83;1.55;;;;;;;;;;7393990;19;19998;-86
2022/06/16 12:44:51;;;;;;;3.20;1.55;;;;;;;;;;7398526;19;20018;-85
2022/06/16 12:47:22;;;;;;;4.05;1.70;;;;;;;;;;7397265;19;20070;-83
2022/06/16 12:49:58;;;;;;;3.20;1.50;;;;;;;;;;7399793;19;20014;-83
2022/06/16 12:52:29;;;;;;;2.65;1.35;;;;;;;;;;7392784;19;20032;-83
2022/06/16 12:55:00;;;;;;;1.52;1.42;;;;;;;;;;7393252;19;20170;-84
2022/06/16 12:57:51;;;;;;;7.90;1.80;;;;;;;;;;7395875;19;20158;-83
2022/06/16 13:00:19;;;;;;;2.65;1.42;;;;;;;;;;7394812;19;20002;-84
2022/06/16 13:02:59;;;;;;;1.65;1.27;;;;;;;;;;7391766;19;20457;-83
2022/06/16 13:05:25;;;;;;;4.22;1.70;;;;;;;;;;7395035;19;20671;-84
2022/06/16 13:07:53;;;;;;;6.38;1.90;;;;;;;;;;7398942;19;20313;-85
2022/06/16 13:10:19;;;;;;;2.60;1.50;;;;;;;;;;7397123;19;20385;-86
2022/06/16 13:12:52;;;;;;;3.22;1.58;;;;;;;;;;7397047;19;20002;-85
2022/06/16 13:15:30;;;;;;;1.50;1.33;;;;;;;;;;7394571;19;20010;-85
2022/06/16 13:18:05;;;;;;;2.05;1.42;;;;;;;;;;7394744;19;20441;-84
2022/06/16 13:20:32;;;;;;;;;;;;;;;;;;7394340;19;20002;-83
2022/06/16 13:23:10;;;;;;;2.40;1.50;;;;;;;;;;7395448;19;19906;-84
2022/06/16 13:25:53;;;;;;;5.57;1.90;;;;;;;;;;7396275;19;20374;-85
2022/06/16 13:28:33;;;;;;;4.85;1.63;;;;;;;;;;7392712;19;20006;-84
2022/06/16 13:31:23;;;;;;;4.80;1.80;;;;;;;;;;7392779;19;20095;-85
2022/06/16 13:33:54;;;;;;;4.43;1.70;;;;;;;;;;7397139;19;20018;-84
2022/06/16 13:36:22;;;;;;;4.97;1.77;;;;;;;;;;7393464;19;20011;-83
2022/06/16 13:38:50;;;;;;;4.22;1.65;;;;;;;;;;7392402;19;20337;-83
2022/06/16 13:41:38;;;;;;;2.65;1.63;;;;;;;;;;7392574;19;20014;-84
2022/06/16 13:44:23;;;;;;;4.72;1.80;;;;;;;;;;7395449;19;20027;-85
2022/06/16 13:46:54;;;;;;;2.08;1.50;;;;;;;;;;7397738;19;20002;-84
2022/06/16 13:49:25;;;;;;;2.17;1.30;;;;;;;;;;7390662;19;20012;-83
2022/06/16 13:51:51;;;;;;;1.70;1.60;;;;;;;;;;7391398;19;19998;-86
2022/06/16 13:54:31;;;;;;;3.33;1.48;;;;;;;;;;7391867;19;20029;-84
2022/06/16 13:56:57;;;;;;;2.50;1.83;;;;;;;;;;7393744;19;20374;-83
2022/06/16 13:59:27;;;;;;;5.18;1.80;;;;;;;;;;7395350;19;20006;-83
2022/06/16 14:02:10;;;;;;;3.17;1.48;;;;;;;;;;7394963;19;20027;-85
2022/06/16 14:04:44;;;;;;;3.03;1.52;;;;;;;;;;7396717;19;20007;-86
2022/06/16 14:07:15;;;;;;;1.90;1.48;;;;;;;;;;7392595;19;19999;-83
2022/06/16 14:10:13;;;;;;;3.95;1.75;;;;;;;;;;7395323;19;20017;-83
2022/06/16 14:13:48;;;;;;;2.35;1.63;;;;;;;;;;7394563;19;19995;-84
2022/06/16 14:16:13;;;;;;;3.20;1.80;;;;;;;;;;7388812;19;20058;-83
2022/06/16 14:18:59;;;;;;;2.28;1.30;;;;;;;;;;7388244;19;20405;-85
2022/06/16 14:21:28;;;;;;;4.68;1.73;;;;;;;;;;7390983;19;20082;-84
2022/06/16 14:24:02;;;;;;;4.10;1.67;;;;;;;;;;7392187;19;20026;-83
2022/06/16 14:26:30;;;;;;;1.88;1.27;;;;;;;;;;7392394;19;20535;-83
2022/06/16 14:29:11;;;;;;;7.97;1.30;;;;;;;;;;7394274;19;20032;-87
2022/06/16 14:31:41;;;;;;;4.55;1.63;;;;;;;;;;7391293;19;20019;-84
2022/06/16 14:34:17;;;;;;;4.55;1.38;;;;;;;;;;7387941;19;20010;-85
2022/06/16 14:36:51;;;;;;;2.85;1.58;;;;;;;;;;7394014;19;20719;-84
2022/06/16 14:39:30;;;;;;;7.47;1.50;;;;;;;;;;7394377;19;19998;-85
2022/06/16 14:42:00;;;;;;;4.50;1.92;;;;;;;;;;7396652;19;20028;-84
2022/06/16 14:44:32;;;;;;;2.47;1.40;;;;;;;;;;7392090;19;20010;-85
2022/06/16 14:47:20;;;;;;;3.13;1.60;;;;;;;;;;7393744;19;20009;-84
2022/06/16 14:50:14;;;;;;;2.47;1.35;;;;;;;;;;7395367;19;20029;-84
2022/06/16 14:52:45;;;;;;;8.73;1.48;;;;;;;;;;7394788;19;20039;-84
2022/06/16 14:55:18;;;;;;;6.15;2.05;;;;;;;;;;7390468;19;20403;-84
2022/06/16 14:57:46;;;;;;;3.80;2.25;;;;;;;;;;7390414;19;20002;-84
2022/06/16 15:00:25;;;;;;;2.78;1.77;;;;;;;;;;7391414;19;20465;-84
2022/06/16 15:02:57;;;;;;;2.67;1.58;;;;;;;;;;7389277;19;20070;-83
2022/06/16 15:05:23;;;;;;;2.85;1.75;;;;;;;;;;7391384;19;20013;-84
2022/06/16 15:07:50;;;;;;;2.08;1.60;;;;;;;;;;7393221;19;19987;-85
2022/06/16 15:10:20;;;;;;;2.83;1.63;;;;;;;;;;7389921;19;20038;-84
2022/06/16 15:12:46;;;;;;;2.03;1.60;;;;;;;;;;7387094;19;20302;-85
2022/06/16 15:15:22;;;;;;;3.80;2.00;;;;;;;;;;7390733;19;20017;-83
2022/06/16 15:20:33;;;;;;;2.38;1.83;;;;;;;;;;7392011;19;20010;-85
2022/06/16 15:23:01;;;;;;;3.90;1.80;;;;;;;;;;7389252;19;20003;-85
2022/06/16 15:25:33;;;;;;;3.42;1.60;;;;;;;;;;7390864;19;20039;-85
2022/06/16 15:28:30;;;;;;;4.95;1.88;;;;;;;;;;7389476;19;20007;-83
2022/06/16 15:31:13;;;;;;;4.22;1.95;;;;;;;;;;7389184;19;20002;-84
2022/06/16 15:36:49;;;;;;;3.92;1.48;;;;;;;;;;7394594;19;19998;-84
2022/06/16 15:39:19;;;;;;;2.63;1.88;;;;;;;;;;7392415;19;20126;-83
2022/06/16 15:41:47;;;;;;;3.60;1.85;;;;;;;;;;7389625;19;20002;-85